Time;durP1;ratioP1;P1;durP2;ratioP2;P2;SDS_P1;SDS_P2;PMS_P1;PMS_P2;Temp;Humidity;BMP_temperature;BMP_pressure;BME280_temperature;BME280_humidity;BME280_pressure;Samples;Min_cycle;Max_cycle;Signal;HPM_P1;HPM_P2
2020/12/05 00:02:20;;;;;;;21.30;17.53;;;8.50;70.70;;;;;;5054288;28;20657;-57
2020/12/05 00:04:47;;;;;;;23.20;16.20;;;8.50;70.50;;;;;;5054033;28;20963;-57
2020/12/05 00:07:15;;;;;;;24.13;18.70;;;8.50;70.60;;;;;;5054153;28;20685;-58
2020/12/05 00:09:42;;;;;;;22.40;18.10;;;8.50;70.90;;;;;;5054114;28;20647;-58
2020/12/05 00:12:09;;;;;;;24.00;18.83;;;8.50;71.50;;;;;;5036226;28;20690;-58
2020/12/05 00:14:36;;;;;;;24.50;20.63;;;8.50;71.70;;;;;;5049458;28;20595;-58
2020/12/05 00:17:03;;;;;;;29.00;21.70;;;8.50;72.00;;;;;;5034545;28;20658;-58
2020/12/05 00:19:30;;;;;;;24.10;20.27;;;8.50;72.20;;;;;;5033917;28;20679;-59
2020/12/05 00:21:58;;;;;;;25.40;19.50;;;8.50;72.30;;;;;;5017014;28;20654;-59
2020/12/05 00:24:26;;;;;;;23.23;17.93;;;8.50;72.50;;;;;;5034082;28;20625;-57
2020/12/05 00:26:54;;;;;;;22.83;18.57;;;8.50;72.80;;;;;;5046180;28;20657;-55
2020/12/05 00:29:21;;;;;;;25.90;19.60;;;8.50;73.10;;;;;;5053128;28;20703;-57
2020/12/05 00:31:49;;;;;;;22.30;19.67;;;8.50;73.30;;;;;;5050570;28;20625;-57
2020/12/05 00:34:16;;;;;;;22.57;17.27;;;8.50;73.40;;;;;;5042354;28;20623;-57
2020/12/05 00:36:43;;;;;;;20.70;17.43;;;8.50;73.60;;;;;;5033965;28;20657;-57
2020/12/05 00:39:10;;;;;;;20.37;17.80;;;8.50;73.40;;;;;;5034883;28;20634;-57
2020/12/05 00:41:38;;;;;;;25.87;18.10;;;8.50;73.50;;;;;;5053508;28;20693;-57
2020/12/05 00:44:05;;;;;;;24.00;18.27;;;8.50;73.80;;;;;;5053490;28;20635;-56
2020/12/05 00:46:31;;;;;;;21.73;18.10;;;8.40;74.00;;;;;;5052637;28;20636;-57
2020/12/05 00:48:58;;;;;;;22.00;18.17;;;8.40;73.80;;;;;;5053273;28;21021;-58
2020/12/05 00:51:25;;;;;;;24.13;18.33;;;8.40;74.10;;;;;;5035141;28;20626;-56
2020/12/05 00:53:52;;;;;;;22.13;16.50;;;8.40;74.70;;;;;;5033111;28;20681;-58
2020/12/05 00:56:19;;;;;;;23.30;18.90;;;8.40;75.60;;;;;;5033282;28;20687;-56
2020/12/05 00:58:47;;;;;;;21.87;17.63;;;8.30;76.10;;;;;;5033307;28;20657;-56
2020/12/05 01:01:14;;;;;;;25.97;19.00;;;8.30;77.10;;;;;;5031764;28;20637;-58
2020/12/05 01:03:41;;;;;;;23.53;19.60;;;8.40;77.90;;;;;;5052072;28;20714;-58
2020/12/05 01:06:11;;;;;;;26.90;20.03;;;8.40;78.50;;;;;;5053149;28;20691;-56
2020/12/05 01:08:40;;;;;;;28.77;20.03;;;8.40;78.80;;;;;;5053036;28;20779;-58
2020/12/05 01:11:11;;;;;;;25.60;18.60;;;8.40;79.40;;;;;;5047730;28;20633;-58
2020/12/05 01:13:38;;;;;;;25.17;19.83;;;8.40;80.80;;;;;;5053382;28;21065;-56
2020/12/05 01:16:06;;;;;;;26.83;20.77;;;8.40;80.40;;;;;;5052984;28;20652;-56
2020/12/05 01:18:33;;;;;;;25.40;19.43;;;8.40;80.80;;;;;;5053020;28;21157;-60
2020/12/05 01:20:59;;;;;;;23.20;20.33;;;8.40;81.40;;;;;;5038641;28;20625;-57
2020/12/05 01:23:26;;;;;;;22.93;18.60;;;8.30;82.20;;;;;;5032573;28;21205;-56
2020/12/05 01:25:53;;;;;;;24.17;18.17;;;8.30;83.10;;;;;;5032808;28;20634;-56
2020/12/05 01:28:20;;;;;;;24.73;18.87;;;8.30;82.90;;;;;;5032614;28;20653;-56
2020/12/05 01:30:47;;;;;;;23.93;19.30;;;8.30;82.40;;;;;;5046777;28;20625;-56
2020/12/05 01:33:16;;;;;;;25.23;20.03;;;8.20;81.70;;;;;;5035802;28;20692;-56
2020/12/05 01:35:43;;;;;;;22.50;18.10;;;8.20;82.60;;;;;;5033094;28;21014;-56
2020/12/05 01:38:10;;;;;;;23.80;20.23;;;8.20;83.00;;;;;;5032438;28;20665;-56
2020/12/05 01:40:37;;;;;;;22.20;18.90;;;8.20;83.70;;;;;;5032198;28;21259;-57
2020/12/05 01:43:04;;;;;;;23.20;18.80;;;8.20;83.50;;;;;;5033181;28;20662;-57
2020/12/05 01:45:30;;;;;;;24.87;20.00;;;8.20;84.00;;;;;;5041281;28;20726;-56
2020/12/05 01:47:57;;;;;;;23.53;19.77;;;8.20;83.60;;;;;;5032743;28;20657;-57
2020/12/05 01:50:26;;;;;;;25.30;18.60;;;8.20;84.60;;;;;;5031988;28;20641;-57
2020/12/05 01:52:56;;;;;;;22.50;18.93;;;8.10;84.90;;;;;;5015718;28;20645;-55
2020/12/05 01:55:26;;;;;;;25.83;18.17;;;8.10;85.70;;;;;;5033312;28;20614;-55
2020/12/05 01:57:52;;;;;;;23.67;18.07;;;8.10;86.30;;;;;;5031919;28;20666;-56
2020/12/05 02:00:19;;;;;;;23.90;18.43;;;8.10;86.60;;;;;;5033150;28;20626;-56
2020/12/05 02:02:46;;;;;;;25.30;18.00;;;8.20;87.50;;;;;;5032867;28;21212;-56
2020/12/05 02:05:16;;;;;;;22.67;19.13;;;8.10;86.00;;;;;;5032251;28;21115;-56
2020/12/05 02:07:48;;;;;;;23.40;19.50;;;8.10;86.00;;;;;;5032581;28;20662;-56
2020/12/05 02:10:17;;;;;;;25.30;19.67;;;8.10;86.00;;;;;;5044809;28;20711;-56
2020/12/05 02:12:47;;;;;;;21.73;18.93;;;8.10;86.20;;;;;;5052339;28;20622;-57
2020/12/05 02:15:16;;;;;;;21.97;18.57;;;8.00;85.40;;;;;;5033524;28;21261;-57
2020/12/05 02:17:46;;;;;;;26.27;19.50;;;8.00;84.50;;;;;;5051081;28;21194;-56
2020/12/05 02:20:13;;;;;;;27.00;18.30;;;8.00;85.20;;;;;;5038746;28;20651;-56
2020/12/05 02:22:43;;;;;;;23.83;19.37;;;8.00;85.70;;;;;;5031679;28;20747;-57
2020/12/05 02:25:11;;;;;;;23.30;18.80;;;8.00;87.30;;;;;;5032918;28;20630;-57
2020/12/05 02:27:38;;;;;;;27.03;20.87;;;7.90;86.20;;;;;;5036910;28;20739;-57
2020/12/05 02:30:05;;;;;;;24.27;20.33;;;7.90;86.20;;;;;;5031747;28;20679;-56
2020/12/05 02:32:32;;;;;;;25.20;19.70;;;7.90;86.30;;;;;;5031656;28;20625;-55
2020/12/05 02:34:58;;;;;;;26.40;19.57;;;7.90;86.50;;;;;;5035404;28;20624;-56
2020/12/05 02:37:27;;;;;;;28.33;19.00;;;7.90;86.50;;;;;;5051185;28;20692;-56
2020/12/05 02:39:54;;;;;;;26.50;20.97;;;7.90;86.80;;;;;;5040394;28;20683;-55
2020/12/05 02:42:22;;;;;;;24.60;18.73;;;7.90;86.90;;;;;;5031568;28;20719;-55
2020/12/05 02:44:49;;;;;;;31.53;21.47;;;7.90;86.90;;;;;;5031379;28;20634;-55
2020/12/05 02:47:16;;;;;;;29.53;22.97;;;7.90;86.30;;;;;;5031177;28;20661;-55
2020/12/05 02:49:44;;;;;;;26.67;21.13;;;7.90;86.30;;;;;;5032677;28;20979;-55
2020/12/05 02:52:11;;;;;;;28.57;19.37;;;7.90;85.90;;;;;;5031273;28;20676;-55
2020/12/05 02:54:41;;;;;;;26.27;21.57;;;7.90;85.90;;;;;;5031214;28;20678;-55
2020/12/05 02:57:08;;;;;;;25.77;20.10;;;7.90;86.00;;;;;;5030963;28;20666;-56
2020/12/05 02:59:36;;;;;;;25.93;20.70;;;7.80;86.00;;;;;;5031898;28;20626;-55
2020/12/05 03:02:02;;;;;;;23.97;19.23;;;7.80;86.20;;;;;;5031500;28;20704;-55
2020/12/05 03:04:29;;;;;;;29.27;22.10;;;7.80;87.30;;;;;;5031442;28;20634;-55
2020/12/05 03:06:57;;;;;;;24.90;20.00;;;7.70;86.90;;;;;;5031468;28;20698;-57
2020/12/05 03:09:24;;;;;;;30.07;21.03;;;7.70;87.40;;;;;;5039369;28;20626;-57
2020/12/05 03:11:50;;;;;;;27.17;20.33;;;7.70;87.50;;;;;;5050971;28;20639;-56
2020/12/05 03:14:17;;;;;;;22.93;19.20;;;7.70;87.50;;;;;;5051008;28;20650;-56
2020/12/05 03:16:45;;;;;;;26.83;20.17;;;7.70;87.40;;;;;;5051137;28;20655;-55
2020/12/05 03:19:13;;;;;;;29.93;21.57;;;7.70;87.60;;;;;;5044217;28;20677;-55
2020/12/05 03:21:41;;;;;;;27.20;21.37;;;7.60;88.00;;;;;;5051932;28;21152;-55
2020/12/05 03:24:08;;;;;;;27.33;20.87;;;7.60;88.20;;;;;;5051548;28;20663;-58
2020/12/05 03:26:35;;;;;;;27.50;21.50;;;7.60;88.20;;;;;;5054519;28;20998;-58
2020/12/05 03:29:02;;;;;;;30.40;21.90;;;7.60;88.60;;;;;;5054650;28;20630;-58
2020/12/05 03:31:41;;;;;;;27.40;21.30;;;7.60;89.30;;;;;;5052878;28;20674;-57
2020/12/05 03:34:09;;;;;;;27.10;21.30;;;7.50;90.00;;;;;;5034915;28;20619;-58
2020/12/05 03:36:36;;;;;;;30.50;21.37;;;7.50;90.50;;;;;;5034781;28;20624;-59
2020/12/05 03:39:03;;;;;;;26.27;19.53;;;7.50;90.30;;;;;;5086431;22;20676;-51
2020/12/05 03:41:29;;;;;;;31.13;23.43;;;7.50;90.30;;;;;;5092716;28;20621;-49
2020/12/05 03:43:56;;;;;;;24.33;20.57;;;7.40;90.40;;;;;;5093178;28;21033;-50
2020/12/05 03:46:23;;;;;;;26.10;20.53;;;7.40;90.50;;;;;;5093005;28;20668;-49
2020/12/05 03:48:50;;;;;;;24.67;20.07;;;7.40;90.60;;;;;;5080197;28;20767;-49
2020/12/05 03:51:18;;;;;;;26.90;23.57;;;7.30;90.70;;;;;;5072871;28;20672;-50
2020/12/05 03:53:44;;;;;;;29.80;20.80;;;7.30;90.90;;;;;;5072547;28;20949;-49
2020/12/05 03:56:12;;;;;;;28.90;21.70;;;7.30;91.10;;;;;;5073216;28;20716;-50
2020/12/05 03:58:39;;;;;;;28.90;21.80;;;7.30;91.20;;;;;;5072586;28;20687;-50
2020/12/05 04:01:05;;;;;;;28.03;20.97;;;7.30;91.30;;;;;;5072829;28;20633;-50
2020/12/05 04:03:32;;;;;;;23.50;18.70;;;7.20;92.00;;;;;;5072426;28;20703;-51
2020/12/05 04:05:59;;;;;;;29.70;21.17;;;7.20;91.80;;;;;;5072207;28;20769;-51
2020/12/05 04:08:27;;;;;;;28.80;23.70;;;7.20;91.90;;;;;;5072502;28;20694;-50
2020/12/05 04:10:53;;;;;;;24.23;21.30;;;7.20;92.00;;;;;;5071823;28;20635;-49
2020/12/05 04:13:20;;;;;;;28.90;20.60;;;7.20;92.10;;;;;;5067616;28;20687;-49
2020/12/05 04:15:47;;;;;;;26.73;23.80;;;7.20;92.10;;;;;;5052539;28;20679;-50
2020/12/05 04:18:15;;;;;;;33.50;25.13;;;7.30;92.10;;;;;;5050874;28;20656;-51
2020/12/05 04:20:42;;;;;;;30.37;23.00;;;7.30;92.30;;;;;;5070554;28;20681;-50
2020/12/05 04:23:09;;;;;;;29.13;20.80;;;7.30;92.10;;;;;;5072774;28;21190;-50
2020/12/05 04:25:36;;;;;;;28.50;22.60;;;7.30;92.20;;;;;;5072578;28;20690;-51
2020/12/05 04:28:03;;;;;;;37.47;26.17;;;7.20;92.30;;;;;;5079057;28;20665;-51
2020/12/05 04:30:30;;;;;;;39.13;26.90;;;7.20;92.30;;;;;;5076456;28;21243;-50
2020/12/05 04:32:57;;;;;;;28.93;24.17;;;7.20;92.40;;;;;;5073210;28;20628;-52
2020/12/05 04:35:23;;;;;;;29.00;23.70;;;7.20;92.40;;;;;;5072612;28;20707;-50
2020/12/05 04:37:50;;;;;;;30.10;24.17;;;7.20;92.50;;;;;;5071585;28;20670;-50
2020/12/05 04:40:18;;;;;;;32.33;24.47;;;7.30;92.50;;;;;;5071794;28;20666;-50
2020/12/05 04:42:46;;;;;;;30.43;24.27;;;7.30;92.40;;;;;;5054157;28;20667;-50
2020/12/05 04:45:12;;;;;;;31.30;22.60;;;7.20;92.60;;;;;;5071954;28;20622;-50
2020/12/05 04:47:40;;;;;;;35.57;27.40;;;7.20;92.80;;;;;;5071455;28;20715;-51
2020/12/05 04:50:07;;;;;;;29.47;23.67;;;7.20;92.80;;;;;;5071726;28;20788;-51
2020/12/05 04:52:42;;;;;;;36.63;27.20;;;7.20;92.80;;;;;;5071934;28;20783;-50
2020/12/05 04:55:08;;;;;;;36.50;25.00;;;7.20;92.70;;;;;;5072133;28;20621;-50
2020/12/05 04:57:39;;;;;;;32.73;24.83;;;7.20;92.80;;;;;;5071410;28;20626;-50
2020/12/05 05:00:07;;;;;;;36.13;29.00;;;7.10;93.10;;;;;;5071676;28;20635;-50
2020/12/05 05:02:34;;;;;;;36.50;29.33;;;7.10;93.20;;;;;;5072018;28;20621;-50
2020/12/05 05:05:01;;;;;;;36.03;28.27;;;7.10;93.10;;;;;;5071142;28;20630;-50
2020/12/05 05:07:28;;;;;;;34.43;26.70;;;7.20;93.20;;;;;;5071006;28;21109;-50
2020/12/05 05:10:00;;;;;;;32.07;26.37;;;7.20;93.20;;;;;;5071858;28;20651;-49
2020/12/05 05:12:29;;;;;;;42.60;26.03;;;7.20;93.20;;;;;;5071396;28;20740;-50
2020/12/05 05:14:56;;;;;;;29.33;24.40;;;7.30;93.20;;;;;;5071834;28;20649;-49
2020/12/05 05:17:23;;;;;;;29.50;25.13;;;7.30;93.50;;;;;;5071186;28;20691;-50
2020/12/05 05:19:50;;;;;;;37.87;28.20;;;7.20;92.90;;;;;;5071379;28;20635;-49
2020/12/05 05:22:20;;;;;;;32.30;27.00;;;7.20;93.00;;;;;;5071516;28;20678;-50
2020/12/05 05:25:08;;;;;;;40.80;28.00;;;7.30;92.90;;;;;;5071079;28;21222;-49
2020/12/05 05:27:41;;;;;;;34.17;25.50;;;7.40;93.10;;;;;;5068729;28;21159;-50
2020/12/05 05:30:09;;;;;;;31.30;25.20;;;7.40;93.00;;;;;;5071627;28;20715;-50
2020/12/05 05:32:44;;;;;;;35.03;25.53;;;7.50;92.90;;;;;;5071293;28;20622;-50
2020/12/05 05:35:12;;;;;;;34.67;26.10;;;7.40;92.90;;;;;;5070862;28;20688;-49
2020/12/05 05:37:40;;;;;;;29.27;24.87;;;7.40;92.90;;;;;;5069908;28;21244;-50
2020/12/05 05:40:08;;;;;;;30.47;23.10;;;7.30;93.00;;;;;;5070807;28;20685;-49
2020/12/05 05:42:36;;;;;;;35.80;24.63;;;7.20;93.40;;;;;;5070348;28;20621;-49
2020/12/05 05:45:21;;;;;;;31.27;23.23;;;7.20;93.80;;;;;;5070292;28;20615;-49
2020/12/05 05:47:49;;;;;;;29.97;23.23;;;7.20;94.10;;;;;;5068802;28;20680;-50
2020/12/05 05:50:20;;;;;;;25.90;21.20;;;7.20;94.20;;;;;;5069865;28;21202;-49
2020/12/05 05:52:55;;;;;;;29.13;21.03;;;7.10;94.40;;;;;;5070393;28;20626;-49
2020/12/05 05:55:21;;;;;;;31.17;24.13;;;7.10;94.60;;;;;;5070296;28;20675;-50
2020/12/05 05:57:48;;;;;;;34.93;25.30;;;7.10;94.60;;;;;;5070118;28;20655;-49
2020/12/05 06:00:15;;;;;;;28.80;24.43;;;7.20;94.90;;;;;;5070315;28;20630;-50
2020/12/05 06:02:42;;;;;;;34.60;24.63;;;7.20;95.00;;;;;;5070032;28;20677;-50
2020/12/05 06:05:10;;;;;;;32.07;27.00;;;7.20;95.00;;;;;;5070263;28;21127;-49
2020/12/05 06:07:37;;;;;;;34.53;24.27;;;7.30;95.10;;;;;;5069852;28;20624;-50
2020/12/05 06:10:04;;;;;;;31.00;24.67;;;7.30;95.50;;;;;;5070214;28;20643;-49
2020/12/05 06:12:33;;;;;;;28.87;21.13;;;7.30;95.00;;;;;;5070377;28;21026;-49
2020/12/05 06:15:00;;;;;;;30.23;22.70;;;7.40;95.00;;;;;;5070073;28;20984;-52
2020/12/05 06:17:27;;;;;;;34.53;22.53;;;7.40;95.10;;;;;;5069655;28;20651;-53
2020/12/05 06:19:54;;;;;;;29.70;22.27;;;7.50;95.10;;;;;;5069900;28;21471;-53
2020/12/05 06:22:25;;;;;;;26.20;18.40;;;7.40;95.00;;;;;;5069917;28;20661;-54
2020/12/05 06:24:56;;;;;;;30.37;21.80;;;7.30;95.00;;;;;;5069741;28;20687;-53
2020/12/05 06:27:23;;;;;;;32.80;23.87;;;7.40;95.20;;;;;;5069391;28;20628;-51
2020/12/05 06:29:50;;;;;;;29.73;22.87;;;7.40;95.20;;;;;;5073442;28;20642;-53
2020/12/05 06:32:38;;;;;;;25.30;21.47;;;7.40;95.20;;;;;;5069947;28;20683;-50
2020/12/05 06:35:05;;;;;;;22.77;18.00;;;7.40;95.30;;;;;;5069962;28;21212;-52
2020/12/05 06:37:34;;;;;;;29.70;20.10;;;7.30;95.20;;;;;;5069328;28;20655;-53
2020/12/05 06:40:01;;;;;;;27.50;22.43;;;7.20;95.30;;;;;;5069537;28;20633;-52
2020/12/05 06:42:28;;;;;;;28.03;23.20;;;7.20;95.50;;;;;;5070020;28;20620;-53
2020/12/05 06:44:55;;;;;;;25.20;19.40;;;7.20;95.50;;;;;;5069723;28;20712;-53
2020/12/05 06:47:23;;;;;;;27.43;20.40;;;7.30;95.50;;;;;;5069484;28;20673;-53
2020/12/05 06:49:54;;;;;;;29.10;22.50;;;7.30;95.50;;;;;;5069865;28;20630;-53
2020/12/05 06:52:38;;;;;;;23.00;19.70;;;7.30;95.40;;;;;;5070648;28;20615;-53
2020/12/05 06:55:07;;;;;;;27.00;21.83;;;7.30;95.30;;;;;;5070201;28;20661;-53
2020/12/05 06:57:34;;;;;;;27.03;20.40;;;7.30;95.30;;;;;;5069319;28;20630;-52
2020/12/05 07:00:32;;;;;;;24.97;19.57;;;7.30;95.30;;;;;;5069195;28;21000;-51
2020/12/05 07:03:00;;;;;;;25.50;20.50;;;7.30;95.30;;;;;;5068978;28;20779;-53
2020/12/05 07:05:42;;;;;;;25.40;19.77;;;7.30;95.30;;;;;;5069695;28;20637;-53
2020/12/05 07:08:33;;;;;;;25.37;20.07;;;7.40;95.30;;;;;;5065786;28;21264;-53
2020/12/05 07:11:02;;;;;;;25.03;20.50;;;7.30;95.40;;;;;;5069283;28;20688;-52
2020/12/05 07:13:38;;;;;;;25.33;19.50;;;7.30;95.50;;;;;;5068617;28;20659;-52
2020/12/05 07:16:25;;;;;;;25.53;19.43;;;7.30;95.50;;;;;;5051832;28;20623;-54
2020/12/05 07:18:53;;;;;;;30.40;19.90;;;7.30;95.60;;;;;;5064606;28;20721;-52
2020/12/05 07:21:20;;;;;;;24.60;16.83;;;7.30;95.70;;;;;;5069039;28;20681;-52
2020/12/05 07:23:48;;;;;;;30.23;21.17;;;7.30;95.80;;;;;;5069106;28;20655;-52
2020/12/05 07:26:14;;;;;;;21.73;16.60;;;7.30;95.70;;;;;;5069019;28;20672;-52
2020/12/05 07:28:44;;;;;;;22.77;18.10;;;7.30;95.80;;;;;;5069127;28;20720;-50
2020/12/05 07:31:11;;;;;;;29.57;21.77;;;7.20;95.80;;;;;;5069229;28;20626;-50
2020/12/05 07:33:39;;;;;;;28.67;22.17;;;7.30;95.90;;;;;;5065153;28;21065;-51
2020/12/05 07:36:07;;;;;;;26.70;20.40;;;7.30;95.90;;;;;;5069118;28;20726;-51
2020/12/05 07:38:34;;;;;;;28.60;22.30;;;7.30;95.90;;;;;;5055847;28;21032;-51
2020/12/05 07:41:09;;;;;;;25.33;18.20;;;7.30;96.00;;;;;;5069046;28;20795;-50
2020/12/05 07:43:36;;;;;;;24.30;20.37;;;7.30;96.00;;;;;;5057905;28;20658;-51
2020/12/05 07:46:03;;;;;;;27.53;23.37;;;7.30;96.10;;;;;;5068673;28;21028;-51
2020/12/05 07:48:30;;;;;;;22.10;19.47;;;7.30;96.10;;;;;;5068559;28;20690;-51
2020/12/05 07:50:57;;;;;;;24.83;17.40;;;7.40;96.20;;;;;;5059094;28;20632;-50
2020/12/05 07:53:29;;;;;;;42.03;18.63;;;7.40;96.30;;;;;;5069216;28;21011;-50
2020/12/05 07:55:56;;;;;;;29.53;21.27;;;7.40;96.20;;;;;;5069307;28;20651;-51
2020/12/05 07:58:23;;;;;;;25.03;19.87;;;7.50;96.20;;;;;;5068610;28;20656;-51
2020/12/05 08:00:54;;;;;;;22.87;18.53;;;7.50;96.20;;;;;;5056626;28;20637;-51
2020/12/05 08:03:45;;;;;;;24.47;19.33;;;7.50;96.40;;;;;;5068328;28;20677;-51
2020/12/05 08:06:15;;;;;;;24.90;18.07;;;7.50;96.10;;;;;;5069518;28;20739;-50
2020/12/05 08:08:47;;;;;;;22.20;17.33;;;7.50;96.00;;;;;;5062000;28;21036;-50
2020/12/05 08:11:13;;;;;;;26.93;20.43;;;7.60;96.10;;;;;;5061080;28;20620;-50
2020/12/05 08:13:41;;;;;;;25.03;19.90;;;7.60;96.00;;;;;;5057928;28;20668;-50
2020/12/05 08:16:08;;;;;;;22.57;19.90;;;7.60;95.80;;;;;;5055531;28;20681;-50
2020/12/05 08:18:36;;;;;;;22.10;18.63;;;7.60;95.80;;;;;;5068815;28;20670;-52
2020/12/05 08:21:04;;;;;;;25.40;20.00;;;7.60;95.80;;;;;;5054130;28;20624;-53
2020/12/05 08:23:31;;;;;;;21.70;19.40;;;7.60;95.80;;;;;;5069805;28;20659;-54
2020/12/05 08:26:02;;;;;;;20.70;18.50;;;7.70;95.80;;;;;;5070230;28;20684;-52
2020/12/05 08:28:30;;;;;;;23.83;18.90;;;7.70;95.70;;;;;;5068224;28;20740;-51
2020/12/05 08:31:02;;;;;;;18.93;16.70;;;7.70;95.70;;;;;;5059856;28;20628;-50
2020/12/05 08:33:29;;;;;;;24.87;18.90;;;7.70;95.70;;;;;;5052309;28;20633;-50
2020/12/05 08:35:56;;;;;;;21.10;18.03;;;7.80;95.80;;;;;;5035613;28;20632;-50
2020/12/05 08:38:24;;;;;;;24.13;19.17;;;7.80;95.80;;;;;;5071940;28;20654;-50
2020/12/05 08:41:03;;;;;;;19.93;17.93;;;7.90;95.70;;;;;;5071924;28;20735;-50
2020/12/05 08:43:30;;;;;;;19.93;17.47;;;7.90;95.50;;;;;;5071370;28;20689;-50
2020/12/05 08:45:58;;;;;;;19.50;16.40;;;7.90;95.40;;;;;;5064962;28;20620;-49
2020/12/05 08:48:25;;;;;;;21.93;17.70;;;8.00;95.40;;;;;;5059359;28;20679;-49
2020/12/05 08:50:51;;;;;;;21.23;17.67;;;8.00;95.40;;;;;;5064945;28;21225;-50
2020/12/05 08:53:20;;;;;;;23.70;16.80;;;8.00;95.30;;;;;;5071446;28;21124;-50
2020/12/05 08:55:48;;;;;;;17.03;15.20;;;8.00;95.20;;;;;;5071889;28;20627;-50
2020/12/05 08:58:15;;;;;;;18.43;15.83;;;8.10;95.20;;;;;;5071380;28;20702;-50
2020/12/05 09:00:41;;;;;;;17.77;15.87;;;8.10;95.10;;;;;;5071148;28;20624;-49
2020/12/05 09:03:19;;;;;;;16.60;14.90;;;8.10;95.00;;;;;;5070989;28;20663;-50
2020/12/05 09:05:47;;;;;;;17.13;15.30;;;8.20;95.20;;;;;;5063979;28;20661;-50
2020/12/05 09:08:19;;;;;;;17.60;13.93;;;8.20;94.80;;;;;;5064318;28;20647;-50
2020/12/05 09:10:46;;;;;;;13.13;11.83;;;8.30;94.70;;;;;;5071141;28;20644;-50
2020/12/05 09:13:14;;;;;;;16.03;12.97;;;8.30;94.50;;;;;;5071537;28;20612;-50
2020/12/05 09:15:54;;;;;;;12.07;10.80;;;8.30;94.40;;;;;;5071566;28;21014;-51
2020/12/05 09:18:22;;;;;;;13.40;12.07;;;8.40;94.30;;;;;;5050686;28;20650;-50
2020/12/05 09:20:49;;;;;;;12.87;11.67;;;8.40;94.10;;;;;;5067111;28;20685;-50
2020/12/05 09:23:25;;;;;;;11.67;10.47;;;8.40;94.10;;;;;;5070992;28;20632;-50
2020/12/05 09:26:02;;;;;;;10.17;9.13;;;8.50;94.00;;;;;;5069955;28;20686;-50
2020/12/05 09:28:29;;;;;;;15.10;10.93;;;8.50;93.80;;;;;;5062588;28;20653;-54
2020/12/05 09:30:56;;;;;;;13.60;12.20;;;8.50;93.70;;;;;;5070052;28;20898;-53
2020/12/05 09:33:24;;;;;;;10.07;9.07;;;8.60;93.70;;;;;;5059138;28;20694;-54
2020/12/05 09:35:51;;;;;;;10.80;9.70;;;8.60;93.60;;;;;;5061467;28;20629;-51
2020/12/05 09:38:17;;;;;;;10.47;9.57;;;8.60;93.60;;;;;;5063279;28;20663;-54
2020/12/05 09:40:44;;;;;;;13.20;9.87;;;8.60;93.40;;;;;;5051902;28;20648;-53
2020/12/05 09:43:11;;;;;;;11.33;9.73;;;8.60;93.40;;;;;;5056747;28;20671;-53
2020/12/05 09:45:39;;;;;;;12.23;10.30;;;8.70;93.60;;;;;;5070592;28;20795;-52
2020/12/05 09:48:06;;;;;;;10.90;9.77;;;8.60;93.40;;;;;;5070422;28;20997;-53
2020/12/05 09:50:34;;;;;;;10.70;9.60;;;8.60;93.20;;;;;;5070344;28;20644;-50
2020/12/05 09:53:01;;;;;;;10.37;9.07;;;8.60;93.20;;;;;;5070032;28;20628;-49
2020/12/05 09:55:28;;;;;;;10.63;9.63;;;8.60;93.30;;;;;;5063319;28;20721;-50
2020/12/05 09:57:54;;;;;;;9.00;8.20;;;8.60;93.20;;;;;;5060101;28;20753;-49
2020/12/05 10:00:23;;;;;;;8.53;7.73;;;8.60;93.20;;;;;;5070367;28;20621;-50
2020/12/05 10:02:49;;;;;;;8.70;7.90;;;8.70;93.00;;;;;;5070073;28;20627;-50
2020/12/05 10:05:16;;;;;;;8.30;7.60;;;8.80;92.80;;;;;;5070060;28;20657;-50
2020/12/05 10:07:44;;;;;;;7.53;6.93;;;8.80;92.70;;;;;;5070009;28;20655;-50
2020/12/05 10:10:11;;;;;;;8.23;7.53;;;8.80;92.70;;;;;;5069745;28;20629;-53
2020/12/05 10:12:38;;;;;;;9.40;8.50;;;8.90;92.60;;;;;;5069884;28;20625;-52
2020/12/05 10:15:05;;;;;;;11.00;8.63;;;8.90;92.50;;;;;;5070154;28;20682;-52
2020/12/05 10:17:32;;;;;;;8.20;7.40;;;8.90;92.50;;;;;;5070086;28;20650;-51
2020/12/05 10:19:59;;;;;;;9.27;8.37;;;8.90;92.50;;;;;;5070094;28;20674;-52
2020/12/05 10:22:26;;;;;;;10.23;9.40;;;9.00;92.50;;;;;;5067113;28;20620;-52
2020/12/05 10:24:53;;;;;;;8.37;7.60;;;9.00;92.50;;;;;;5070085;28;20641;-52
2020/12/05 10:27:20;;;;;;;8.10;7.40;;;9.10;92.70;;;;;;5063175;28;21149;-51
2020/12/05 10:29:47;;;;;;;8.50;7.53;;;9.20;92.80;;;;;;5061360;28;20682;-51
2020/12/05 10:32:14;;;;;;;9.03;8.10;;;9.20;92.60;;;;;;5058217;28;20629;-50
2020/12/05 10:34:41;;;;;;;6.90;6.20;;;9.20;92.40;;;;;;5058761;28;20630;-53
2020/12/05 10:37:08;;;;;;;7.53;6.83;;;9.30;92.00;;;;;;5057785;28;20736;-53
2020/12/05 10:39:34;;;;;;;7.30;6.60;;;9.20;92.00;;;;;;5059301;28;20669;-53
2020/12/05 10:42:02;;;;;;;8.70;6.87;;;9.20;91.80;;;;;;5057880;28;20979;-53
2020/12/05 10:44:29;;;;;;;7.57;6.67;;;9.30;91.80;;;;;;5058579;28;21202;-53
2020/12/05 10:46:56;;;;;;;6.40;5.90;;;9.30;91.60;;;;;;5060369;28;20698;-54
2020/12/05 10:49:23;;;;;;;5.23;4.80;;;9.30;91.40;;;;;;5069000;28;20688;-52
2020/12/05 10:51:49;;;;;;;10.60;8.20;;;9.40;91.30;;;;;;5069492;28;20994;-53
2020/12/05 10:54:16;;;;;;;7.50;6.80;;;9.40;91.30;;;;;;5062048;28;21101;-52
2020/12/05 10:56:43;;;;;;;8.80;5.97;;;9.50;91.40;;;;;;5049846;28;20702;-54
2020/12/05 10:59:11;;;;;;;8.03;5.80;;;9.50;91.00;;;;;;5069152;28;20681;-54
2020/12/05 11:01:51;;;;;;;6.60;6.00;;;9.50;91.00;;;;;;5068083;28;20709;-52
2020/12/05 11:04:19;;;;;;;6.13;5.53;;;9.50;91.10;;;;;;5050255;28;20665;-54
2020/12/05 11:06:46;;;;;;;6.00;4.90;;;9.50;90.80;;;;;;5049088;28;20704;-53
2020/12/05 11:09:13;;;;;;;6.33;5.63;;;9.60;90.60;;;;;;5066819;28;21025;-53
2020/12/05 11:11:39;;;;;;;6.53;5.93;;;9.50;90.50;;;;;;5068618;28;20694;-54
2020/12/05 11:14:06;;;;;;;6.67;6.07;;;9.60;90.50;;;;;;5068783;28;20633;-54
2020/12/05 11:16:34;;;;;;;5.13;4.73;;;9.60;90.50;;;;;;5069381;28;20679;-53
2020/12/05 11:19:01;;;;;;;9.97;5.30;;;9.50;90.30;;;;;;5069048;28;20718;-50
2020/12/05 11:21:27;;;;;;;5.87;5.37;;;9.50;90.40;;;;;;5069324;28;20678;-53
2020/12/05 11:23:54;;;;;;;7.03;5.80;;;9.50;90.60;;;;;;5068329;28;20686;-54
2020/12/05 11:26:21;;;;;;;6.67;5.93;;;9.50;90.60;;;;;;5068709;28;20742;-53
2020/12/05 11:28:48;;;;;;;5.10;4.60;;;9.50;90.60;;;;;;5068862;28;20738;-54
2020/12/05 11:31:15;;;;;;;5.33;4.83;;;9.50;90.40;;;;;;5069323;28;20686;-54
2020/12/05 11:33:43;;;;;;;5.63;5.13;;;9.50;90.40;;;;;;5068754;28;20625;-52
2020/12/05 11:36:10;;;;;;;5.83;5.33;;;9.50;90.30;;;;;;5069461;28;20629;-52
2020/12/05 11:38:37;;;;;;;5.60;5.10;;;9.50;90.50;;;;;;5068761;28;20653;-53
2020/12/05 11:41:03;;;;;;;6.10;5.50;;;9.50;90.50;;;;;;5068850;28;20663;-52
2020/12/05 11:43:30;;;;;;;5.80;5.10;;;9.50;90.70;;;;;;5069002;28;20937;-52
2020/12/05 11:45:57;;;;;;;5.87;5.37;;;9.50;90.90;;;;;;5049655;28;20720;-54
2020/12/05 11:48:24;;;;;;;5.00;4.50;;;9.50;90.90;;;;;;5064613;28;20656;-53
2020/12/05 11:50:51;;;;;;;5.20;4.43;;;9.60;91.00;;;;;;5072478;28;20629;-53
2020/12/05 11:53:18;;;;;;;5.40;4.97;;;9.60;91.00;;;;;;5072561;28;20629;-52
2020/12/05 11:55:45;;;;;;;5.17;4.77;;;9.70;91.20;;;;;;5073031;28;20621;-53
2020/12/05 11:58:12;;;;;;;4.87;4.37;;;9.70;91.20;;;;;;5072298;28;20668;-49
2020/12/05 12:00:39;;;;;;;4.67;4.27;;;9.70;91.20;;;;;;5072127;28;20613;-50
2020/12/05 12:03:05;;;;;;;4.73;4.33;;;9.70;91.40;;;;;;5071656;28;20617;-50
2020/12/05 12:05:32;;;;;;;3.40;3.10;;;9.70;91.30;;;;;;5072065;28;20721;-51
2020/12/05 12:08:00;;;;;;;2.97;2.77;;;9.70;91.00;;;;;;5071677;28;20813;-50
2020/12/05 12:10:27;;;;;;;3.70;3.33;;;9.70;90.70;;;;;;5072096;28;20661;-51
2020/12/05 12:12:53;;;;;;;3.33;3.13;;;9.70;90.80;;;;;;5071207;28;21009;-50
2020/12/05 12:15:20;;;;;;;3.27;2.97;;;9.70;90.70;;;;;;5071655;28;20629;-52
2020/12/05 12:17:47;;;;;;;2.90;2.70;;;9.60;90.70;;;;;;5071867;28;21193;-51
2020/12/05 12:20:14;;;;;;;3.00;2.70;;;9.60;90.80;;;;;;5072119;28;20728;-49
2020/12/05 12:22:41;;;;;;;3.23;3.00;;;9.60;90.70;;;;;;5071901;28;20665;-51
2020/12/05 12:25:08;;;;;;;4.40;3.70;;;9.60;90.70;;;;;;5071542;28;20660;-50
2020/12/05 12:27:35;;;;;;;3.90;2.83;;;9.60;90.80;;;;;;5071359;28;20629;-50
2020/12/05 12:30:02;;;;;;;3.30;2.93;;;9.60;90.50;;;;;;5073086;28;21164;-50
2020/12/05 12:32:29;;;;;;;3.27;2.97;;;9.60;90.40;;;;;;5079164;28;20636;-49
2020/12/05 12:34:56;;;;;;;3.50;3.20;;;9.60;90.30;;;;;;5072005;28;20621;-49
2020/12/05 12:37:22;;;;;;;3.37;3.07;;;9.60;90.60;;;;;;5071590;28;20715;-49
2020/12/05 12:39:49;;;;;;;3.37;3.10;;;9.60;90.10;;;;;;5071466;28;21153;-50
2020/12/05 12:42:17;;;;;;;2.57;2.40;;;9.50;90.00;;;;;;5072067;28;20640;-49
2020/12/05 12:44:44;;;;;;;3.20;2.90;;;9.50;90.00;;;;;;5071017;28;20659;-51
2020/12/05 12:47:23;;;;;;;3.27;2.97;;;9.50;90.20;;;;;;5071263;28;21252;-49